Time;durP1;ratioP1;P1;durP2;ratioP2;P2;SDS_P1;SDS_P2;PMS_P1;PMS_P2;Temp;Humidity;BMP_temperature;BMP_pressure;BME280_temperature;BME280_humidity;BME280_pressure;Samples;Min_cycle;Max_cycle;Signal;HPM_P1;HPM_P2
2022/10/02 00:02:13;;;;;;;4.18;3.28;;;;;;;21.44;56.77;101293.94;5035782;28;20420;-80
2022/10/02 00:04:56;;;;;;;4.78;3.65;;;;;;;21.44;56.79;101285.00;5034348;28;20049;-80
2022/10/02 00:07:33;;;;;;;5.97;3.65;;;;;;;21.44;56.77;101291.25;5035861;28;20053;-79
2022/10/02 00:10:08;;;;;;;5.70;3.75;;;;;;;21.45;56.81;101292.09;5035778;28;20049;-79
2022/10/02 00:12:35;;;;;;;6.70;3.65;;;;;;;21.45;56.72;101289.41;5047458;28;20052;-79
2022/10/02 00:15:13;;;;;;;4.38;3.50;;;;;;;21.43;56.75;101300.31;5055257;28;20051;-79
2022/10/02 00:17:44;;;;;;;4.32;3.30;;;;;;;21.44;56.75;101303.84;5055395;28;20036;-79
2022/10/02 00:20:17;;;;;;;4.53;3.78;;;;;;;21.44;56.89;101303.84;5055328;28;20049;-79
2022/10/02 00:22:55;;;;;;;5.70;3.47;;;;;;;21.44;56.85;101320.03;5053701;28;20060;-80
2022/10/02 00:25:45;;;;;;;5.93;3.80;;;;;;;21.44;56.86;101322.72;5054034;28;20045;-80
2022/10/02 00:28:23;;;;;;;4.82;3.90;;;;;;;21.43;56.78;101313.78;5055390;28;20052;-80
2022/10/02 00:31:14;;;;;;;6.85;3.90;;;;;;;21.45;56.71;101327.09;5055090;28;20511;-79
2022/10/02 00:33:57;;;;;;;8.55;4.07;;;;;;;21.44;56.81;101317.31;5054701;28;20052;-79
2022/10/02 00:36:31;;;;;;;4.68;3.42;;;;;;;21.44;56.70;101322.72;5054871;28;20404;-79
2022/10/02 00:39:18;;;;;;;6.43;3.78;;;;;;;21.44;56.77;101320.03;5054753;28;20396;-79
2022/10/02 00:42:04;;;;;;;5.15;3.72;;;;;;;21.43;56.65;101320.97;5055219;28;20484;-80
2022/10/02 00:44:56;;;;;;;6.68;3.80;;;;;;;21.43;56.57;101340.72;5054466;28;20045;-80
2022/10/02 00:47:26;;;;;;;5.85;3.95;;;;;;;21.43;56.47;101334.44;5054726;28;20049;-79
2022/10/02 00:50:16;;;;;;;6.75;4.00;;;;;;;21.42;56.38;101344.38;5054815;28;20503;-80
2022/10/02 00:52:58;;;;;;;7.00;3.75;;;;;;;21.44;56.34;101344.25;5037077;28;20049;-80
2022/10/02 00:56:00;;;;;;;5.75;3.78;;;;;;;21.43;56.37;101329.06;5049060;28;20373;-80
2022/10/02 00:58:42;;;;;;;6.30;3.97;;;;;;;21.42;56.43;101333.59;5052133;28;20068;-79
2022/10/02 01:01:16;;;;;;;5.55;3.50;;;;;;;21.43;56.21;101326.38;5052503;28;20524;-79
2022/10/02 01:03:55;;;;;;;6.15;4.20;;;;;;;21.43;56.32;101338.03;5052679;28;20065;-80
2022/10/02 01:06:26;;;;;;;4.63;3.97;;;;;;;21.43;56.24;101335.34;5052168;28;20056;-79
2022/10/02 01:08:54;;;;;;;4.90;3.63;;;;;;;21.43;56.23;101337.16;5052095;28;20053;-80
2022/10/02 01:11:23;;;;;;;4.28;3.88;;;;;;;21.44;56.27;101338.88;5052306;28;20049;-79
2022/10/02 01:13:50;;;;;;;5.85;4.35;;;;;;;21.43;56.22;101334.44;5052097;28;20053;-79
2022/10/02 01:16:18;;;;;;;4.55;3.53;;;;;;;21.42;56.25;101349.75;5052057;28;20556;-79
2022/10/02 01:18:46;;;;;;;6.50;4.30;;;;;;;21.42;56.04;101351.59;5051732;28;20060;-79
2022/10/02 01:21:36;;;;;;;5.75;3.70;;;;;;;21.42;56.11;101355.16;5052021;28;20079;-79
2022/10/02 01:24:22;;;;;;;6.65;3.95;;;;;;;21.42;56.20;101346.22;5051695;28;20386;-80
2022/10/02 01:26:50;;;;;;;7.05;3.65;;;;;;;21.42;56.19;101343.53;5052222;28;20512;-79
2022/10/02 01:29:17;;;;;;;4.97;3.55;;;;;;;21.42;56.10;101354.31;5051712;28;20053;-79
2022/10/02 01:31:45;;;;;;;4.93;3.55;;;;;;;21.41;56.06;101352.59;5051601;28;20134;-80
2022/10/02 01:34:12;;;;;;;4.93;3.53;;;;;;;21.42;56.06;101346.22;5052120;28;20071;-80
2022/10/02 01:36:40;;;;;;;4.70;3.63;;;;;;;21.42;55.97;101362.38;5053551;28;20040;-80
2022/10/02 01:39:07;;;;;;;4.53;4.13;;;;;;;21.41;55.97;101349.91;5053578;28;20044;-80
2022/10/02 01:41:41;;;;;;;4.93;3.83;;;;;;;21.42;55.93;101357.84;5054189;28;20494;-80
2022/10/02 01:44:10;;;;;;;4.63;3.67;;;;;;;21.41;55.88;101352.59;5054068;28;20041;-80
2022/10/02 01:46:58;;;;;;;4.95;3.88;;;;;;;21.41;55.87;101358.84;5053869;28;20055;-79
2022/10/02 01:49:44;;;;;;;3.75;3.28;;;;;;;21.39;55.85;101355.44;5053567;28;20041;-80
2022/10/02 01:52:42;;;;;;;4.22;3.50;;;;;;;21.41;55.89;101377.69;5050623;28;20400;-80
2022/10/02 01:55:27;;;;;;;4.40;3.50;;;;;;;21.40;55.72;101359.84;5033265;28;20045;-80
2022/10/02 01:58:31;;;;;;;4.68;3.58;;;;;;;21.40;55.75;101361.69;5033748;28;20060;-80
2022/10/02 02:01:22;;;;;;;4.55;3.72;;;;;;;21.41;55.80;101368.75;5033500;28;20485;-79
2022/10/02 02:04:13;;;;;;;4.40;3.83;;;;;;;21.40;55.73;101364.38;5033419;28;20057;-79
2022/10/02 02:06:47;;;;;;;4.10;3.22;;;;;;;21.39;55.74;101363.53;5033520;28;20112;-80
2022/10/02 02:09:40;;;;;;;5.40;3.90;;;;;;;21.39;55.75;101366.22;5033738;28;20539;-80
2022/10/02 02:12:17;;;;;;;4.75;4.25;;;;;;;21.40;55.78;101370.59;5036064;28;20049;-80
2022/10/02 02:15:00;;;;;;;4.32;3.38;;;;;;;21.38;55.78;101377.94;5054226;28;20049;-80
2022/10/02 02:17:45;;;;;;;6.40;3.75;;;;;;;21.38;55.81;101372.56;5053448;28;20408;-80
2022/10/02 02:20:19;;;;;;;3.95;3.30;;;;;;;21.39;55.86;101370.72;5053068;28;20044;-80
2022/10/02 02:22:50;;;;;;;4.82;3.90;;;;;;;21.40;55.76;101375.16;5052294;28;20435;-80
2022/10/02 02:25:23;;;;;;;5.15;3.42;;;;;;;21.38;55.81;101369.88;5053241;28;20412;-80
2022/10/02 02:27:56;;;;;;;4.82;3.63;;;;;;;21.39;55.86;101373.41;5053405;28;20052;-80
2022/10/02 02:30:24;;;;;;;4.63;3.60;;;;;;;21.39;55.80;101373.41;5053359;28;20041;-80
2022/10/02 02:32:58;;;;;;;3.33;2.90;;;;;;;21.39;55.82;101373.41;5053497;28;20503;-80
2022/10/02 02:35:31;;;;;;;3.97;3.38;;;;;;;21.39;55.86;101365.34;5052723;28;20053;-79
2022/10/02 02:38:09;;;;;;;4.88;3.63;;;;;;;21.39;55.85;101373.41;5053306;28;20408;-88
2022/10/02 02:40:40;;;;;;;5.45;3.45;;;;;;;21.38;55.91;101369.03;5053904;28;20075;-79
2022/10/02 02:43:16;;;;;;;3.55;3.15;;;;;;;21.38;56.14;101369.88;5053033;28;20049;-80
2022/10/02 02:45:56;;;;;;;4.07;3.47;;;;;;;21.39;56.08;101378.81;5053011;28;20057;-80
2022/10/02 02:48:28;;;;;;;3.88;3.40;;;;;;;21.37;55.95;101376.25;5054153;28;20056;-80
2022/10/02 02:51:07;;;;;;;5.67;3.30;;;;;;;21.39;55.87;101381.50;5052742;28;20053;-79
2022/10/02 02:53:45;;;;;;;4.15;3.25;;;;;;;21.39;56.25;101381.50;5045357;28;20405;-79
2022/10/02 02:56:18;;;;;;;3.65;3.08;;;;;;;21.38;56.08;101372.56;5034269;28;20049;-79
2022/10/02 02:58:53;;;;;;;4.63;3.55;;;;;;;21.39;56.22;101376.09;5033132;28;20045;-79
2022/10/02 03:01:20;;;;;;;4.25;3.20;;;;;;;21.38;56.29;101375.25;5033145;28;20088;-77
2022/10/02 03:03:47;;;;;;;6.10;3.90;;;;;;;21.39;56.41;101360.81;5032554;28;20046;-77
2022/10/02 03:06:15;;;;;;;4.10;3.22;;;;;;;21.38;56.45;101375.25;5033045;28;20045;-79
2022/10/02 03:08:43;;;;;;;4.18;3.47;;;;;;;21.38;56.42;101380.66;5035566;28;20046;-79
2022/10/02 03:11:22;;;;;;;5.18;3.65;;;;;;;21.38;56.07;101380.66;5036295;28;20049;-79
2022/10/02 03:13:55;;;;;;;5.30;3.22;;;;;;;21.38;56.09;101382.50;5036926;28;20045;-78
2022/10/02 03:17:00;;;;;;;4.30;2.95;;;;;;;21.39;56.42;101381.50;5036329;28;20041;-78
2022/10/02 03:19:49;;;;;;;4.75;3.33;;;;;;;21.39;56.28;101378.81;5036262;28;20052;-78
2022/10/02 03:22:24;;;;;;;3.72;3.13;;;;;;;21.37;56.42;101389.72;5036136;28;20061;-78
2022/10/02 03:25:07;;;;;;;4.28;3.63;;;;;;;21.38;56.43;101387.88;5036642;28;20046;-78
2022/10/02 03:28:00;;;;;;;5.35;3.42;;;;;;;21.38;56.36;101388.72;5034869;28;20049;-77
2022/10/02 03:30:29;;;;;;;4.25;2.95;;;;;;;21.37;56.41;101397.81;5036186;28;20053;-78
2022/10/02 03:32:59;;;;;;;4.22;3.03;;;;;;;21.37;56.39;101397.81;5035940;28;20049;-78
2022/10/02 03:35:28;;;;;;;3.42;3.10;;;;;;;21.37;56.19;101400.50;5036314;28;20053;-77
2022/10/02 03:37:59;;;;;;;4.32;3.20;;;;;;;21.37;56.35;101405.88;5035794;28;20057;-78
2022/10/02 03:40:26;;;;;;;4.13;3.00;;;;;;;21.38;56.46;101412.97;5035703;28;20049;-78
2022/10/02 03:42:57;;;;;;;4.53;3.40;;;;;;;21.38;56.18;101414.81;5036261;28;20037;-78
2022/10/02 03:45:25;;;;;;;5.00;3.33;;;;;;;21.37;56.09;101413.97;5035765;28;20056;-78
2022/10/02 03:48:13;;;;;;;5.13;3.40;;;;;;;21.38;55.92;101420.19;5035689;28;20056;-78
2022/10/02 03:50:40;;;;;;;4.35;3.42;;;;;;;21.37;55.82;101421.19;5035825;28;20041;-77
2022/10/02 03:53:14;;;;;;;3.95;3.10;;;;;;;21.36;55.85;101412.25;5035447;28;20049;-78
2022/10/02 03:55:56;;;;;;;4.15;2.95;;;;;;;21.36;55.88;101417.66;5034555;28;20046;-78
2022/10/02 03:58:24;;;;;;;4.63;3.00;;;;;;;;;;5036086;28;20049;-78
2022/10/02 04:01:01;;;;;;;4.32;2.72;;;;;;;21.36;55.77;101427.56;5035291;28;20060;-78
2022/10/02 04:03:49;;;;;;;3.70;2.65;;;;;;;21.36;55.77;101430.25;5035263;28;20041;-78
2022/10/02 04:06:24;;;;;;;3.58;3.28;;;;;;;21.36;55.64;101432.94;5035396;28;20045;-78
2022/10/02 04:08:54;;;;;;;3.80;2.88;;;;;;;;;;5035593;28;20072;-78
2022/10/02 04:11:24;;;;;;;3.72;3.20;;;;;;;;;;5035140;28;20057;-78
2022/10/02 04:14:09;;;;;;;6.50;3.15;;;;;;;21.36;55.67;101433.81;5043385;28;20044;-78
2022/10/02 04:16:43;;;;;;;5.70;3.22;;;;;;;21.34;55.87;101437.59;5055355;28;20056;-79
2022/10/02 04:19:17;;;;;;;4.07;3.45;;;;;;;21.34;55.58;101443.84;5054527;28;20056;-78
2022/10/02 04:21:53;;;;;;;3.20;2.60;;;;;;;21.34;55.62;101445.69;5055085;28;20053;-78
2022/10/02 04:24:29;;;;;;;3.63;2.90;;;;;;;21.34;55.59;101451.06;5053851;28;20053;-78
2022/10/02 04:27:11;;;;;;;5.00;2.72;;;;;;;21.34;55.55;101461.84;5055359;28;20055;-79
2022/10/02 04:29:45;;;;;;;5.10;3.17;;;;;;;21.33;55.61;101460.13;5054805;28;20052;-79
2022/10/02 04:32:26;;;;;;;6.28;3.40;;;;;;;21.34;55.55;101469.91;5054746;28;20067;-79
2022/10/02 04:34:53;;;;;;;5.43;3.17;;;;;;;21.32;55.51;101478.16;5054993;28;20404;-78
2022/10/02 04:37:47;;;;;;;4.25;2.83;;;;;;;21.33;55.60;101476.31;5054562;28;20378;-78
2022/10/02 04:40:23;;;;;;;;;;;;;;;21.32;55.43;101463.78;5054974;28;20386;-78
2022/10/02 04:43:08;;;;;;;5.18;3.42;;;;;;;21.33;55.54;101479.00;5054495;28;19921;-78
2022/10/02 04:46:02;;;;;;;3.72;2.88;;;;;;;21.33;55.47;101476.31;5053852;28;20056;-78
2022/10/02 04:48:29;;;;;;;;;;;;;;;21.32;55.27;101474.56;5054401;28;20056;-78
2022/10/02 04:51:15;;;;;;;3.60;3.10;;;;;;;21.30;55.39;101469.28;5053110;28;19924;-78
2022/10/02 04:54:12;;;;;;;3.03;2.67;;;;;;;21.31;55.42;101472.84;5054363;28;20052;-78
2022/10/02 04:56:55;;;;;;;3.60;3.10;;;;;;;21.31;55.34;101480.91;5039457;28;20044;-78
2022/10/02 04:59:43;;;;;;;3.38;2.95;;;;;;;21.31;55.34;101479.09;5034714;28;20056;-78
2022/10/02 05:02:45;;;;;;;3.10;2.58;;;;;;;21.31;55.22;101489.00;5034659;28;20049;-78
2022/10/02 05:05:25;;;;;;;4.45;3.15;;;;;;;21.31;55.17;101486.31;5034564;28;20041;-78
2022/10/02 05:08:15;;;;;;;3.67;2.72;;;;;;;21.30;55.26;101489.97;5033203;28;20045;-78
2022/10/02 05:10:58;;;;;;;3.92;3.03;;;;;;;21.30;55.23;101503.44;5034399;28;20037;-78
2022/10/02 05:13:31;;;;;;;;;;;;;;;21.30;55.20;101492.69;5034814;28;20086;-78
2022/10/02 05:16:10;;;;;;;4.68;2.90;;;;;;;21.31;55.12;101494.38;5033975;28;19928;-78
2022/10/02 05:18:40;;;;;;;4.93;2.60;;;;;;;21.30;55.10;101492.69;5034258;28;20370;-78
2022/10/02 05:21:23;;;;;;;3.08;2.60;;;;;;;21.30;55.24;101503.44;5033711;28;20053;-78
2022/10/02 05:24:33;;;;;;;3.72;2.50;;;;;;;21.30;55.33;101506.13;5033108;28;20060;-78
2022/10/02 05:27:18;;;;;;;2.90;2.60;;;;;;;21.28;55.04;101492.81;5034151;28;20053;-78
2022/10/02 05:29:57;;;;;;;4.15;2.72;;;;;;;21.29;55.10;101501.75;5033762;28;20408;-78
2022/10/02 05:32:31;;;;;;;3.90;2.92;;;;;;;21.29;55.12;101494.53;5033720;28;20049;-78
2022/10/02 05:34:58;;;;;;;4.35;2.60;;;;;;;21.29;55.01;101493.66;5034320;28;20056;-78
2022/10/02 05:37:33;;;;;;;3.13;2.78;;;;;;;21.29;54.98;101499.06;5034717;28;20053;-78
2022/10/02 05:40:23;;;;;;;2.80;2.58;;;;;;;21.28;55.08;101505.44;5033417;28;20508;-79
2022/10/02 05:42:58;;;;;;;2.50;2.30;;;;;;;21.29;55.09;101504.44;5034432;28;20053;-79
2022/10/02 05:45:37;;;;;;;3.25;2.70;;;;;;;21.28;55.04;101511.66;5034657;28;20046;-78
2022/10/02 05:48:13;;;;;;;2.75;2.30;;;;;;;21.29;55.08;101517.91;5034756;28;20041;-78
2022/10/02 05:50:41;;;;;;;3.50;2.63;;;;;;;21.28;55.07;101514.38;5034894;28;20045;-78
2022/10/02 05:53:27;;;;;;;3.60;2.80;;;;;;;21.28;55.16;101513.50;5035084;28;20053;-78
2022/10/02 05:56:21;;;;;;;3.33;2.50;;;;;;;21.28;55.09;101505.44;5034771;28;20049;-78
2022/10/02 05:59:07;;;;;;;4.05;2.45;;;;;;;21.27;55.09;101491.13;5034049;28;20049;-79
2022/10/02 06:01:40;;;;;;;3.67;2.40;;;;;;;21.28;55.05;101503.59;5033932;28;20049;-77
2022/10/02 06:04:21;;;;;;;4.13;2.28;;;;;;;21.27;55.15;101495.63;5034535;28;20053;-77
2022/10/02 06:06:52;;;;;;;3.42;2.70;;;;;;;21.28;55.13;101506.28;5033229;28;20382;-77
2022/10/02 06:09:24;;;;;;;7.30;2.70;;;;;;;21.27;54.37;101514.47;5034983;28;20384;-86
2022/10/02 06:11:59;;;;;;;5.05;3.05;;;;;;;21.25;53.34;101517.31;5035649;28;20041;-77
2022/10/02 06:14:35;;;;;;;5.15;3.05;;;;;;;21.23;53.73;101533.59;5042726;28;20049;-79
2022/10/02 06:17:12;;;;;;;3.58;2.80;;;;;;;21.22;53.15;101531.00;5055452;28;20048;-79
2022/10/02 06:19:57;;;;;;;6.32;3.33;;;;;;;21.21;52.67;101543.63;5054110;28;20056;-78
2022/10/02 06:22:44;;;;;;;5.57;3.38;;;;;;;21.19;51.55;101529.44;5054504;28;20048;-79
2022/10/02 06:25:28;;;;;;;4.15;3.33;;;;;;;21.18;51.35;101529.56;5054961;28;20052;-79
2022/10/02 06:28:07;;;;;;;9.93;2.78;;;;;;;21.17;51.64;101536.78;5054817;28;20408;-77
2022/10/02 06:30:40;;;;;;;6.38;3.40;;;;;;;21.16;51.27;101543.16;5054095;28;20045;-78
2022/10/02 06:33:25;;;;;;;5.45;3.85;;;;;;;21.10;50.37;101549.03;5054817;28;20053;-78
2022/10/02 06:36:11;;;;;;;13.18;3.60;;;;;;;21.05;50.51;101548.56;5054067;28;20416;-77
2022/10/02 06:39:06;;;;;;;6.65;4.35;;;;;;;20.98;50.29;101545.53;5055287;28;20053;-75
2022/10/02 06:42:01;;;;;;;6.38;4.47;;;;;;;20.93;50.42;101553.09;5055275;28;20393;-75
2022/10/02 06:44:32;;;;;;;8.80;4.10;;;;;;;20.86;50.60;101565.34;5057956;28;20048;-78
2022/10/02 06:47:13;;;;;;;8.57;3.42;;;;;;;20.84;51.14;101572.72;5055769;28;20131;-78
2022/10/02 06:49:50;;;;;;;4.95;2.78;;;;;;;20.87;51.71;101567.09;5055792;28;20044;-75
2022/10/02 06:52:23;;;;;;;5.63;3.13;;;;;;;20.92;52.29;101578.31;5057022;28;20037;-75
2022/10/02 06:54:59;;;;;;;3.80;2.47;;;;;;;20.94;52.43;101573.69;5057267;28;20048;-75
2022/10/02 06:57:32;;;;;;;4.90;2.97;;;;;;;20.98;52.54;101571.56;5057011;28;20060;-76
2022/10/02 07:00:15;;;;;;;;;;;;;;;20.99;52.65;101574.16;5058257;28;20060;-75
2022/10/02 07:02:51;;;;;;;4.13;2.75;;;;;;;21.01;52.79;101576.72;5059750;28;19920;-76
2022/10/02 07:05:27;;;;;;;5.15;2.28;;;;;;;21.04;52.78;101576.47;5058761;28;20072;-75
2022/10/02 07:08:43;;;;;;;4.00;2.20;;;;;;;21.06;52.88;101571.81;5057993;28;20048;-75
2022/10/02 07:11:18;;;;;;;2.72;2.42;;;;;;;21.08;52.93;101556.41;5055034;28;20053;-75
2022/10/02 07:14:29;;;;;;;4.60;2.88;;;;;;;21.09;53.00;101543.78;5038671;28;20059;-76
2022/10/02 07:17:14;;;;;;;4.53;2.20;;;;;;;21.10;53.07;101546.34;5055622;28;20045;-76
2022/10/02 07:20:02;;;;;;;6.78;2.75;;;;;;;21.11;53.10;101548.06;5055421;28;20052;-76
2022/10/02 07:23:05;;;;;;;4.63;2.22;;;;;;;21.12;53.19;101549.78;5055741;28;20064;-75
2022/10/02 07:26:11;;;;;;;3.47;2.20;;;;;;;21.14;53.26;101555.03;5055471;28;20092;-76
2022/10/02 07:29:11;;;;;;;3.58;2.40;;;;;;;21.13;53.36;101554.19;5055006;28;20053;-75
2022/10/02 07:32:00;;;;;;;4.30;2.03;;;;;;;21.14;53.49;101547.81;5055032;28;20049;-75
2022/10/02 07:34:30;;;;;;;3.28;2.50;;;;;;;21.15;53.48;101552.22;5054676;28;20072;-76
2022/10/02 07:37:24;;;;;;;3.30;2.17;;;;;;;21.15;53.55;101546.00;5054618;28;20060;-76
2022/10/02 07:40:15;;;;;;;5.00;2.72;;;;;;;21.16;53.57;101550.38;5054077;28;20053;-75
2022/10/02 07:42:54;;;;;;;3.05;2.10;;;;;;;21.17;53.65;101557.47;5054054;28;20049;-75
2022/10/02 07:45:38;;;;;;;5.03;2.50;;;;;;;21.18;53.72;101560.03;5054499;28;20049;-75
2022/10/02 07:48:11;;;;;;;3.92;2.35;;;;;;;21.18;53.73;101565.41;5055986;28;20053;-75
2022/10/02 07:50:57;;;;;;;4.00;2.42;;;;;;;21.18;53.83;101560.03;5056743;28;20049;-75
2022/10/02 07:53:39;;;;;;;2.95;2.08;;;;;;;21.18;53.92;101567.25;5054908;28;20033;-75
2022/10/02 07:56:18;;;;;;;3.43;2.20;;;;;;;21.18;53.83;101556.47;5055977;28;20064;-75
2022/10/02 07:58:52;;;;;;;3.30;2.40;;;;;;;21.19;53.82;101561.75;5055980;28;20053;-75
2022/10/02 08:01:29;;;;;;;4.88;2.95;;;;;;;21.20;53.95;101554.53;5056177;28;20064;-76
2022/10/02 08:04:06;;;;;;;3.65;2.40;;;;;;;21.19;54.04;101542.91;5055945;28;20049;-75
2022/10/02 08:06:35;;;;;;;2.33;2.10;;;;;;;21.21;53.97;101559.78;5054469;28;20045;-75
2022/10/02 08:09:18;;;;;;;4.68;2.33;;;;;;;21.20;54.06;101559.91;5055757;28;20044;-75
2022/10/02 08:12:13;;;;;;;3.15;2.17;;;;;;;21.21;54.10;101559.78;5055629;28;20074;-75
2022/10/02 08:14:44;;;;;;;4.78;2.53;;;;;;;21.21;54.08;101554.41;5055841;28;20053;-76
2022/10/02 08:17:41;;;;;;;3.95;2.40;;;;;;;21.21;54.07;101546.31;5055712;28;20072;-75
2022/10/02 08:20:21;;;;;;;3.42;2.20;;;;;;;21.22;54.14;101550.72;5055978;28;20049;-75
2022/10/02 08:23:15;;;;;;;3.50;2.03;;;;;;;21.22;54.14;101553.41;5055118;28;20041;-75
2022/10/02 08:25:49;;;;;;;3.40;2.20;;;;;;;21.22;54.10;101555.25;5055032;28;20045;-75
2022/10/02 08:28:26;;;;;;;6.20;2.42;;;;;;;21.23;54.17;101552.44;5055785;28;20053;-75
2022/10/02 08:30:54;;;;;;;2.65;1.98;;;;;;;21.23;54.21;101552.44;5055734;28;20044;-76
2022/10/02 08:33:22;;;;;;;2.83;2.03;;;;;;;21.24;54.30;101546.06;5055869;28;20055;-75
2022/10/02 08:36:15;;;;;;;2.72;2.05;;;;;;;21.25;54.34;101538.84;5055064;28;20049;-76
2022/10/02 08:38:42;;;;;;;;;;;;;;;21.24;54.39;101540.69;5055421;28;20045;-75
2022/10/02 08:41:43;;;;;;;2.30;2.00;;;;;;;21.24;54.37;101538.00;5054701;28;19929;-75
2022/10/02 08:44:44;;;;;;;2.38;1.80;;;;;;;21.26;54.36;101543.25;5055707;28;20118;-75
2022/10/02 08:47:39;;;;;;;3.83;2.00;;;;;;;21.26;54.39;101543.25;5055086;28;20049;-75
2022/10/02 08:50:30;;;;;;;2.65;2.22;;;;;;;21.26;54.41;101534.31;5054735;28;20064;-75
2022/10/02 08:53:20;;;;;;;2.35;1.98;;;;;;;21.26;54.42;101540.53;5055002;28;20048;-75
2022/10/02 08:56:25;;;;;;;2.95;2.08;;;;;;;21.27;54.44;101541.41;5055535;28;20071;-75
2022/10/02 08:59:30;;;;;;;2.17;1.90;;;;;;;21.27;54.46;101541.41;5055399;28;20052;-76
2022/10/02 09:02:26;;;;;;;2.30;2.03;;;;;;;21.28;54.38;101543.13;5055034;28;20473;-75
2022/10/02 09:04:59;;;;;;;2.80;2.10;;;;;;;21.28;54.37;101535.06;5054588;28;20056;-75
2022/10/02 09:07:42;;;;;;;2.58;2.03;;;;;;;21.28;54.38;101540.44;5054641;28;20049;-76
2022/10/02 09:10:44;;;;;;;3.10;1.87;;;;;;;21.28;54.36;101521.59;5054366;28;20060;-75
2022/10/02 09:13:39;;;;;;;2.75;1.90;;;;;;;21.27;54.45;101526.13;5054616;28;20045;-76
2022/10/02 09:16:09;;;;;;;3.53;2.20;;;;;;;21.28;54.42;101519.75;5054742;28;20053;-75
2022/10/02 09:19:02;;;;;;;3.55;2.17;;;;;;;21.28;54.44;101519.75;5055293;28;20045;-75
2022/10/02 09:21:51;;;;;;;3.67;2.15;;;;;;;21.28;54.52;101510.81;5054330;28;20049;-75
2022/10/02 09:24:58;;;;;;;3.17;2.03;;;;;;;21.29;54.47;101507.13;5054182;28;20052;-76
2022/10/02 09:27:37;;;;;;;2.35;2.00;;;;;;;21.29;54.51;101516.06;5053989;28;20037;-76
2022/10/02 09:30:29;;;;;;;3.30;1.95;;;;;;;21.29;54.45;101517.91;5054235;28;20056;-75
2022/10/02 09:33:18;;;;;;;4.28;1.90;;;;;;;21.29;54.42;101524.16;5054560;28;20048;-75
2022/10/02 09:36:12;;;;;;;2.78;2.00;;;;;;;21.28;54.47;101517.06;5054420;28;20377;-76
2022/10/02 09:38:58;;;;;;;3.47;2.40;;;;;;;21.29;54.56;101512.53;5054040;28;20045;-75
2022/10/02 09:41:46;;;;;;;2.83;1.73;;;;;;;21.29;54.52;101509.81;5054080;28;20041;-75
2022/10/02 09:44:46;;;;;;;3.88;2.15;;;;;;;21.30;54.52;101500.75;5054591;28;20045;-76
2022/10/02 09:47:34;;;;;;;4.10;2.28;;;;;;;21.29;54.51;101497.22;5054035;28;20049;-75
2022/10/02 09:50:23;;;;;;;2.50;1.80;;;;;;;21.30;54.45;101492.69;5053765;28;20055;-75
2022/10/02 09:53:11;;;;;;;4.38;2.25;;;;;;;21.31;54.59;101489.00;5053619;28;20052;-76
2022/10/02 09:56:31;;;;;;;3.67;2.00;;;;;;;21.30;54.54;101492.69;5053612;28;20041;-75
2022/10/02 09:59:20;;;;;;;3.88;2.50;;;;;;;21.30;54.62;101487.28;5051554;28;20053;-75
2022/10/02 10:02:22;;;;;;;3.95;2.33;;;;;;;21.30;54.51;101474.69;5051940;28;20064;-75
2022/10/02 10:05:08;;;;;;;4.22;2.08;;;;;;;21.31;54.65;101470.13;5051796;28;20059;-76
2022/10/02 10:07:36;;;;;;;3.40;2.05;;;;;;;21.30;54.64;101461.22;5051385;28;20056;-75
2022/10/02 10:10:42;;;;;;;3.83;2.70;;;;;;;21.33;54.67;101476.31;5052089;28;20045;-75
2022/10/02 10:13:21;;;;;;;2.92;2.33;;;;;;;21.30;54.73;101469.28;4992764;28;20054;-76
2022/10/02 10:15:48;;;;;;;6.00;1.90;;;;;;;21.31;54.53;101465.63;4992676;28;20073;-76
2022/10/02 10:18:56;;;;;;;4.13;2.28;;;;;;;21.32;54.70;101461.09;4991445;28;20074;-75
2022/10/02 10:21:44;;;;;;;3.50;2.20;;;;;;;21.32;54.71;101447.63;4991851;28;20054;-75
2022/10/02 10:24:17;;;;;;;3.13;2.35;;;;;;;21.31;54.65;101454.88;4992229;28;20058;-76
2022/10/02 10:27:12;;;;;;;2.80;2.00;;;;;;;21.31;54.76;101446.78;4992551;28;20047;-75
2022/10/02 10:30:12;;;;;;;2.50;1.73;;;;;;;21.33;54.80;101438.59;4992718;28;20055;-76
2022/10/02 10:33:13;;;;;;;3.78;2.20;;;;;;;21.33;54.77;101446.66;4992375;28;20112;-76
2022/10/02 10:36:01;;;;;;;5.65;2.03;;;;;;;21.32;54.82;101447.63;5009708;28;20065;-76
2022/10/02 10:38:38;;;;;;;4.90;1.95;;;;;;;21.32;54.81;101443.13;5011502;28;20057;-75
2022/10/02 10:41:34;;;;;;;4.30;2.72;;;;;;;21.33;54.80;101443.97;5011340;28;20061;-75
2022/10/02 10:44:15;;;;;;;2.40;1.73;;;;;;;21.35;54.88;101447.38;5012155;28;20050;-75
2022/10/02 10:46:54;;;;;;;4.68;2.20;;;;;;;21.34;54.89;101440.28;5012313;28;20050;-75
2022/10/02 10:49:41;;;;;;;3.60;2.08;;;;;;;21.35;54.89;101442.00;5019396;28;20053;-75
2022/10/02 10:52:40;;;;;;;3.15;2.15;;;;;;;21.32;54.90;101432.34;5051111;28;20061;-76
2022/10/02 10:55:16;;;;;;;2.95;2.10;;;;;;;;;;5051812;28;20053;-76
2022/10/02 10:58:03;;;;;;;2.42;1.88;;;;;;;21.35;55.07;101442.00;5051188;28;20060;-75
2022/10/02 11:00:52;;;;;;;2.90;2.20;;;;;;;21.34;55.03;101445.69;4972906;28;20059;-75
2022/10/02 11:03:58;;;;;;;3.28;2.08;;;;;;;21.35;54.95;101428.53;4972158;28;20059;-75
2022/10/02 11:06:40;;;;;;;3.08;1.90;;;;;;;21.34;54.89;101418.75;4914905;29;20056;-75
2022/10/02 11:09:29;;;;;;;3.00;1.77;;;;;;;21.34;55.04;101421.44;4915508;29;20067;-75
2022/10/02 11:11:57;;;;;;;2.70;1.98;;;;;;;21.35;54.98;101425.84;4915249;29;20064;-76
2022/10/02 11:14:27;;;;;;;3.55;2.22;;;;;;;21.36;54.96;101422.19;4915316;29;20052;-76
2022/10/02 11:17:13;;;;;;;3.63;2.10;;;;;;;21.36;55.10;101406.03;4914994;29;20067;-75
2022/10/02 11:20:18;;;;;;;2.72;2.10;;;;;;;21.34;55.10;101405.28;4914655;29;20058;-76
2022/10/02 11:23:06;;;;;;;3.17;2.10;;;;;;;21.34;55.11;101410.66;4914739;29;20484;-76
2022/10/02 11:25:49;;;;;;;3.17;2.30;;;;;;;21.35;55.13;101409.69;4914627;29;20067;-75
2022/10/02 11:28:22;;;;;;;3.78;2.10;;;;;;;21.35;55.10;101404.28;4916288;29;20408;-76
2022/10/02 11:31:07;;;;;;;;;;;;;;;21.36;55.18;101406.03;4957376;29;20411;-75
2022/10/02 11:33:53;;;;;;;3.88;2.65;;;;;;;;;;4956467;29;20413;-75
2022/10/02 11:36:25;;;;;;;2.85;1.98;;;;;;;;;;4956497;29;20062;-76
2022/10/02 11:38:58;;;;;;;3.08;1.95;;;;;;;21.35;55.21;101401.59;5030506;28;20064;-76
2022/10/02 11:41:49;;;;;;;;;;;;;;;21.34;55.14;101397.19;5035503;28;20045;-75
2022/10/02 11:44:56;;;;;;;2.88;2.30;;;;;;;21.36;55.26;101392.56;5050664;28;19921;-75
2022/10/02 11:47:35;;;;;;;3.25;1.92;;;;;;;;;;5055839;28;20408;-75
2022/10/02 11:50:33;;;;;;;2.92;2.08;;;;;;;21.36;55.27;101389.88;5056496;28;20049;-76
2022/10/02 11:53:10;;;;;;;5.40;2.65;;;;;;;;;;5056718;28;20037;-76
2022/10/02 11:56:05;;;;;;;2.42;2.00;;;;;;;21.37;55.20;101383.47;5056704;28;20060;-75
2022/10/02 11:59:05;;;;;;;3.72;2.20;;;;;;;21.36;55.39;101384.47;5056381;28;20053;-76
2022/10/02 12:01:53;;;;;;;3.13;2.00;;;;;;;21.35;55.29;101388.13;5055784;28;20064;-76
2022/10/02 12:04:54;;;;;;;3.92;2.10;;;;;;;21.36;55.38;101389.88;5054687;28;20045;-75
2022/10/02 12:07:33;;;;;;;2.20;1.90;;;;;;;21.37;55.35;101391.56;5055619;28;20045;-75
2022/10/02 12:10:26;;;;;;;4.53;2.30;;;;;;;21.36;55.30;101389.88;5056097;28;20045;-75
2022/10/02 12:13:03;;;;;;;2.95;2.10;;;;;;;21.36;55.36;101385.31;5056088;28;20041;-75
2022/10/02 12:15:55;;;;;;;4.30;2.47;;;;;;;21.36;55.26;101373.69;5055427;28;20046;-75
2022/10/02 12:18:22;;;;;;;3.58;2.10;;;;;;;21.36;55.40;101369.16;5055358;28;20045;-75
2022/10/02 12:26:58;;;;;;;3.22;2.13;;;;;;;;;;5055541;28;20044;-75
2022/10/02 12:29:47;;;;;;;3.38;2.15;;;;;;;21.37;55.30;101353.84;5055675;28;20400;-75
2022/10/02 12:32:36;;;;;;;2.75;2.22;;;;;;;21.36;55.33;101353.00;5055196;28;20068;-75
2022/10/02 12:35:20;;;;;;;2.63;2.38;;;;;;;21.36;55.37;101347.63;5055129;28;20056;-75
2022/10/02 12:38:15;;;;;;;2.97;2.05;;;;;;;21.36;55.30;101347.63;5055599;28;20049;-75
2022/10/02 12:41:16;;;;;;;2.50;1.83;;;;;;;21.37;55.26;101352.00;5054348;28;20395;-76
2022/10/02 12:44:01;;;;;;;2.60;2.20;;;;;;;21.36;55.33;101342.22;5055085;28;20045;-76
2022/10/02 12:46:59;;;;;;;2.65;1.83;;;;;;;21.37;55.35;101341.25;5054969;28;20044;-75
2022/10/02 12:49:44;;;;;;;2.47;2.00;;;;;;;21.37;55.25;101333.16;5055340;28;20041;-75